Time;durP1;ratioP1;P1;durP2;ratioP2;P2;SDS_P1;SDS_P2;PMS_P1;PMS_P2;Temp;Humidity;BMP_temperature;BMP_pressure;BME280_temperature;BME280_humidity;BME280_pressure;Samples;Min_cycle;Max_cycle;Signal;HPM_P1;HPM_P2
2021/06/27 00:00:42;;;;;;;21.50;18.02;;;20.90;95.80;;;;;;5054572;28;20460;-42
2021/06/27 00:03:08;;;;;;;19.27;17.33;;;20.80;95.90;;;;;;5050731;28;20365;-41
2021/06/27 00:05:35;;;;;;;19.45;17.20;;;20.80;95.90;;;;;;5052723;28;20017;-41
2021/06/27 00:08:02;;;;;;;21.25;18.60;;;20.80;96.00;;;;;;5052536;28;20116;-42
2021/06/27 00:10:39;;;;;;;19.45;17.48;;;20.80;96.10;;;;;;5049889;28;20049;-41
2021/06/27 00:13:05;;;;;;;18.70;16.80;;;20.70;96.30;;;;;;5054348;28;20044;-41
2021/06/27 00:15:36;;;;;;;25.02;20.98;;;20.70;96.40;;;;;;5049495;28;20074;-42
2021/06/27 00:18:04;;;;;;;19.73;17.73;;;20.60;96.60;;;;;;5055578;28;20135;-42
2021/06/27 00:20:31;;;;;;;24.27;21.67;;;20.60;96.70;;;;;;5048260;28;20025;-41
2021/06/27 00:22:57;;;;;;;22.58;20.15;;;20.50;96.90;;;;;;5056577;28;20021;-41
2021/06/27 00:25:26;;;;;;;20.63;18.42;;;20.50;96.90;;;;;;5048048;28;20043;-41
2021/06/27 00:27:52;;;;;;;20.67;18.48;;;20.50;97.00;;;;;;5057324;28;20032;-40
2021/06/27 00:30:20;;;;;;;21.63;19.35;;;20.40;97.00;;;;;;5047084;28;20052;-42
2021/06/27 00:32:46;;;;;;;21.35;19.05;;;20.40;97.10;;;;;;5058509;28;20161;-41
2021/06/27 00:35:13;;;;;;;20.75;18.45;;;20.40;97.20;;;;;;5045723;28;20063;-41
2021/06/27 00:37:39;;;;;;;21.33;19.10;;;20.40;97.20;;;;;;5059193;28;20506;-42
2021/06/27 00:40:11;;;;;;;21.77;19.35;;;20.40;97.30;;;;;;5046604;28;20025;-40
2021/06/27 00:42:37;;;;;;;19.90;16.58;;;20.40;97.30;;;;;;5058498;28;20028;-42
2021/06/27 00:45:09;;;;;;;20.13;18.02;;;20.40;97.30;;;;;;5046300;28;20028;-42
2021/06/27 00:47:37;;;;;;;21.83;19.63;;;20.40;97.30;;;;;;5057020;28;20021;-41
2021/06/27 00:50:06;;;;;;;23.13;20.05;;;20.50;97.30;;;;;;5048292;28;20037;-40
2021/06/27 00:52:32;;;;;;;23.20;19.38;;;20.50;97.30;;;;;;5060197;28;20033;-40
2021/06/27 00:54:57;;;;;;;21.73;18.52;;;20.50;97.40;;;;;;5053162;28;20028;-41
2021/06/27 00:57:23;;;;;;;26.00;19.88;;;20.40;97.40;;;;;;5056716;28;20087;-41
2021/06/27 00:59:49;;;;;;;22.80;19.48;;;20.40;97.50;;;;;;5056078;28;20060;-42
2021/06/27 01:02:14;;;;;;;22.63;19.40;;;20.40;97.50;;;;;;5053966;28;20071;-42
2021/06/27 01:04:40;;;;;;;21.75;19.50;;;20.40;97.60;;;;;;5058445;28;20108;-41
2021/06/27 01:07:06;;;;;;;22.27;19.80;;;20.40;97.60;;;;;;5051816;28;20067;-41
2021/06/27 01:09:32;;;;;;;20.88;18.77;;;20.40;97.70;;;;;;5061515;28;20329;-41
2021/06/27 01:11:59;;;;;;;22.63;19.73;;;20.30;97.70;;;;;;5050592;28;20444;-42
2021/06/27 01:14:26;;;;;;;22.63;20.23;;;20.40;97.80;;;;;;5061298;28;20040;-42
2021/06/27 01:16:51;;;;;;;22.80;20.40;;;20.30;97.80;;;;;;5049685;28;20479;-41
2021/06/27 01:19:17;;;;;;;23.77;21.08;;;20.30;97.90;;;;;;5062023;28;20052;-42
2021/06/27 01:21:43;;;;;;;26.38;22.17;;;20.30;97.90;;;;;;5060060;28;20055;-40
2021/06/27 01:24:09;;;;;;;23.40;20.50;;;20.30;98.10;;;;;;5056313;28;20109;-45
2021/06/27 01:26:35;;;;;;;22.17;19.88;;;20.30;98.10;;;;;;5070616;28;20123;-42
2021/06/27 01:29:01;;;;;;;27.50;22.60;;;20.30;98.20;;;;;;5057610;28;20111;-43
2021/06/27 01:31:27;;;;;;;26.48;23.48;;;20.20;98.30;;;;;;5068225;28;20020;-42
2021/06/27 01:33:56;;;;;;;24.63;21.80;;;20.20;98.60;;;;;;5060827;28;20036;-42
2021/06/27 01:36:23;;;;;;;25.45;22.75;;;20.10;98.90;;;;;;5067212;28;20102;-41
2021/06/27 01:38:52;;;;;;;26.42;23.60;;;20.10;98.80;;;;;;5061938;28;20093;-42
2021/06/27 01:41:18;;;;;;;25.00;22.27;;;20.00;99.20;;;;;;5064244;28;20029;-42
2021/06/27 01:43:44;;;;;;;28.17;24.27;;;20.00;99.10;;;;;;5064419;28;20028;-41
2021/06/27 01:46:10;;;;;;;26.38;22.65;;;19.90;99.10;;;;;;5061187;28;20538;-40
2021/06/27 01:48:36;;;;;;;30.45;23.67;;;19.90;99.20;;;;;;5066486;28;20090;-41
2021/06/27 01:51:04;;;;;;;30.83;24.77;;;19.90;99.40;;;;;;5059290;28;20391;-41
2021/06/27 01:53:32;;;;;;;29.08;25.55;;;19.90;99.50;;;;;;5067459;28;20079;-45
2021/06/27 01:56:06;;;;;;;27.08;24.17;;;19.80;99.60;;;;;;5057925;28;20332;-39
2021/06/27 01:58:52;;;;;;;30.42;24.33;;;19.80;99.60;;;;;;5068108;28;20044;-41
2021/06/27 02:01:21;;;;;;;29.10;24.30;;;19.80;99.70;;;;;;5047228;28;20020;-42
2021/06/27 02:03:49;;;;;;;27.02;23.50;;;19.70;99.70;;;;;;5067966;28;20380;-43
2021/06/27 02:06:26;;;;;;;24.92;22.23;;;19.70;99.80;;;;;;5057655;28;20110;-42
2021/06/27 02:08:52;;;;;;;26.30;22.92;;;19.70;99.80;;;;;;5067085;28;20112;-43
2021/06/27 02:11:21;;;;;;;24.25;20.85;;;19.70;99.90;;;;;;5057282;28;20048;-42
2021/06/27 02:13:48;;;;;;;28.58;25.10;;;19.70;99.90;;;;;;5067566;28;20036;-42
2021/06/27 02:16:14;;;;;;;31.40;25.73;;;19.70;99.90;;;;;;5056961;28;20060;-41
2021/06/27 02:18:42;;;;;;;32.22;28.73;;;19.60;99.90;;;;;;5068998;28;20059;-41
2021/06/27 02:21:14;;;;;;;30.30;26.45;;;19.60;99.90;;;;;;5039431;28;20032;-42
2021/06/27 02:23:41;;;;;;;30.45;24.88;;;19.60;99.90;;;;;;5068758;28;20059;-41
2021/06/27 02:26:06;;;;;;;27.83;24.08;;;19.60;99.90;;;;;;5056180;28;20025;-41
2021/06/27 02:28:32;;;;;;;34.95;27.40;;;19.60;99.90;;;;;;5068536;28;20037;-42
2021/06/27 02:31:02;;;;;;;35.08;28.08;;;19.50;99.90;;;;;;5057500;28;20031;-42
2021/06/27 02:33:27;;;;;;;32.90;27.70;;;19.50;99.90;;;;;;5067634;28;20043;-41
2021/06/27 02:35:54;;;;;;;32.40;28.50;;;19.50;99.90;;;;;;5058719;28;20519;-42
2021/06/27 02:38:19;;;;;;;35.28;28.63;;;19.50;99.90;;;;;;5064492;28;20055;-42
2021/06/27 02:40:46;;;;;;;32.00;28.35;;;19.50;99.90;;;;;;5062061;28;20041;-42
2021/06/27 02:43:13;;;;;;;32.33;28.15;;;19.50;99.90;;;;;;5061989;28;20036;-41
2021/06/27 02:45:39;;;;;;;32.17;26.52;;;19.50;99.90;;;;;;5064674;28;20020;-41
2021/06/27 02:48:08;;;;;;;32.22;27.27;;;19.50;99.90;;;;;;5058733;28;20113;-41
2021/06/27 02:50:36;;;;;;;34.63;26.52;;;19.50;99.90;;;;;;5066310;28;20044;-41
2021/06/27 02:53:03;;;;;;;32.05;27.00;;;19.50;99.90;;;;;;5057446;28;20081;-42
2021/06/27 02:55:28;;;;;;;35.40;29.48;;;19.50;99.90;;;;;;5066548;28;20043;-42
2021/06/27 02:57:54;;;;;;;30.60;27.08;;;19.50;99.90;;;;;;5056775;28;20415;-41
2021/06/27 03:00:21;;;;;;;34.13;28.33;;;19.50;99.90;;;;;;5067385;28;20098;-42
2021/06/27 03:02:46;;;;;;;31.42;26.88;;;19.50;99.90;;;;;;5055363;28;20027;-39
2021/06/27 03:05:13;;;;;;;31.60;26.60;;;19.40;99.90;;;;;;5068316;28;20032;-42
2021/06/27 03:07:40;;;;;;;31.60;28.17;;;19.40;99.90;;;;;;5055253;28;20031;-42
2021/06/27 03:10:11;;;;;;;34.03;27.08;;;19.40;99.90;;;;;;5067172;28;20052;-42
2021/06/27 03:12:42;;;;;;;31.35;26.23;;;19.40;99.90;;;;;;5054353;28;20060;-39
2021/06/27 03:15:08;;;;;;;32.70;27.85;;;19.40;99.90;;;;;;5067725;28;20047;-41
2021/06/27 03:17:34;;;;;;;34.83;29.15;;;19.30;99.90;;;;;;5056247;28;20047;-41
2021/06/27 03:20:06;;;;;;;33.15;28.15;;;19.30;99.90;;;;;;5065883;28;20024;-42
2021/06/27 03:22:31;;;;;;;35.33;28.42;;;19.30;99.90;;;;;;5061700;28;20024;-40
2021/06/27 03:24:57;;;;;;;34.63;29.10;;;19.20;99.90;;;;;;5049983;28;20426;-42
2021/06/27 03:27:27;;;;;;;34.38;29.05;;;19.20;99.90;;;;;;5053309;28;20032;-42
2021/06/27 03:29:52;;;;;;;34.35;27.67;;;19.20;99.90;;;;;;5052678;28;20033;-42
2021/06/27 03:32:18;;;;;;;36.13;29.67;;;19.20;99.90;;;;;;5050958;28;20020;-41
2021/06/27 03:34:44;;;;;;;39.63;30.95;;;19.10;99.90;;;;;;5055177;28;20031;-41
2021/06/27 03:37:09;;;;;;;35.78;30.65;;;19.10;99.90;;;;;;5048605;28;20051;-40
2021/06/27 03:39:36;;;;;;;31.75;27.70;;;19.20;99.90;;;;;;5058093;28;20044;-41
2021/06/27 03:42:02;;;;;;;37.88;30.13;;;19.10;99.90;;;;;;5048363;28;20031;-40
2021/06/27 03:44:29;;;;;;;32.78;28.23;;;19.20;99.90;;;;;;5058196;28;20029;-42
2021/06/27 03:46:55;;;;;;;34.45;28.10;;;19.10;99.90;;;;;;5046855;28;20100;-40
2021/06/27 03:49:21;;;;;;;35.55;29.63;;;19.10;99.90;;;;;;5058691;28;20445;-41
2021/06/27 03:51:47;;;;;;;34.17;28.30;;;19.20;99.90;;;;;;5047082;28;20082;-41
2021/06/27 03:54:14;;;;;;;32.58;28.13;;;19.10;99.90;;;;;;5059175;28;20046;-42
2021/06/27 03:56:40;;;;;;;32.65;26.80;;;19.10;99.90;;;;;;5047219;28;20124;-42
2021/06/27 03:59:06;;;;;;;31.55;26.63;;;19.10;99.90;;;;;;5058249;28;20501;-41
2021/06/27 04:01:32;;;;;;;32.33;27.60;;;19.10;99.90;;;;;;5047045;28;20043;-42
2021/06/27 04:03:58;;;;;;;34.78;26.48;;;19.10;99.90;;;;;;5056247;28;20020;-41
2021/06/27 04:06:24;;;;;;;34.28;25.95;;;19.20;99.90;;;;;;5049285;28;20083;-41
2021/06/27 04:08:50;;;;;;;27.73;24.48;;;19.20;99.90;;;;;;5053444;28;20036;-41
2021/06/27 04:11:15;;;;;;;28.52;24.80;;;19.20;99.90;;;;;;5052498;28;20045;-40
2021/06/27 04:13:41;;;;;;;29.58;24.23;;;19.20;99.90;;;;;;5050125;28;20029;-42
2021/06/27 04:16:07;;;;;;;30.10;24.48;;;19.30;99.90;;;;;;5054661;28;20040;-40
2021/06/27 04:18:34;;;;;;;32.55;27.05;;;19.30;99.90;;;;;;5048784;28;20033;-41
2021/06/27 04:21:01;;;;;;;30.30;26.15;;;19.30;99.90;;;;;;5058125;28;20476;-42
2021/06/27 04:23:28;;;;;;;29.90;25.88;;;19.40;99.90;;;;;;5065631;28;20033;-42
2021/06/27 04:25:54;;;;;;;35.47;29.42;;;19.40;99.90;;;;;;5054792;28;20444;-42
2021/06/27 04:28:19;;;;;;;30.80;25.90;;;19.40;99.90;;;;;;5065533;28;20281;-41
2021/06/27 04:30:45;;;;;;;28.90;25.55;;;19.50;99.90;;;;;;5054433;28;20021;-38
2021/06/27 04:33:11;;;;;;;31.65;25.23;;;19.50;99.90;;;;;;5066537;28;20059;-43
2021/06/27 04:35:39;;;;;;;29.52;25.08;;;19.60;99.90;;;;;;5053467;28;20048;-41
2021/06/27 04:38:10;;;;;;;29.27;23.98;;;19.70;99.90;;;;;;5066486;28;20036;-42
2021/06/27 04:40:36;;;;;;;29.95;22.52;;;19.70;99.90;;;;;;5053787;28;20036;-42
2021/06/27 04:43:02;;;;;;;25.85;21.70;;;19.80;99.90;;;;;;5065274;28;20032;-42
2021/06/27 04:45:28;;;;;;;27.35;23.50;;;19.80;99.90;;;;;;5056329;28;20029;-43
2021/06/27 04:47:54;;;;;;;27.98;24.58;;;19.90;99.90;;;;;;5063605;28;20035;-42
2021/06/27 04:50:19;;;;;;;25.55;22.67;;;20.00;99.90;;;;;;5058480;28;20194;-41
2021/06/27 04:52:51;;;;;;;25.17;22.10;;;20.00;99.90;;;;;;5061990;28;20034;-41
2021/06/27 04:55:17;;;;;;;25.50;22.80;;;20.00;99.90;;;;;;5059644;28;20468;-40
2021/06/27 04:57:42;;;;;;;25.65;21.30;;;20.10;99.90;;;;;;5059713;28;20053;-43
2021/06/27 05:00:08;;;;;;;27.10;22.23;;;20.10;99.80;;;;;;5062604;28;20035;-41
2021/06/27 05:02:34;;;;;;;25.13;22.40;;;20.20;99.70;;;;;;5057018;28;20111;-42
2021/06/27 05:04:59;;;;;;;21.80;19.42;;;20.20;99.60;;;;;;5064310;28;20128;-42
2021/06/27 05:07:25;;;;;;;25.60;19.60;;;20.30;99.60;;;;;;5055083;28;20028;-41
2021/06/27 05:09:51;;;;;;;21.25;18.58;;;20.30;99.50;;;;;;5064013;28;20052;-41
2021/06/27 05:12:16;;;;;;;25.17;18.88;;;20.30;99.50;;;;;;5054507;28;20166;-40
2021/06/27 05:14:42;;;;;;;21.92;19.50;;;20.40;99.40;;;;;;5066395;28;20094;-42
2021/06/27 05:17:08;;;;;;;19.20;16.88;;;20.40;99.20;;;;;;5052727;28;20025;-42
2021/06/27 05:19:33;;;;;;;21.92;19.25;;;20.40;99.20;;;;;;5066695;28;20024;-42
2021/06/27 05:21:59;;;;;;;21.63;18.60;;;20.50;99.10;;;;;;5061665;28;20051;-41
2021/06/27 05:24:25;;;;;;;20.75;17.98;;;20.50;99.10;;;;;;5066137;28;20440;-42
2021/06/27 05:26:50;;;;;;;21.50;18.13;;;20.50;99.00;;;;;;5059860;28;20498;-41
2021/06/27 05:29:16;;;;;;;19.98;17.77;;;20.50;98.90;;;;;;5047771;28;20134;-46
2021/06/27 05:31:42;;;;;;;18.40;16.50;;;20.50;98.90;;;;;;5053367;28;20246;-40
2021/06/27 05:34:07;;;;;;;22.85;18.08;;;20.60;98.90;;;;;;5050679;28;20032;-42
2021/06/27 05:36:37;;;;;;;19.33;17.42;;;20.70;98.80;;;;;;5054069;28;20092;-43
2021/06/27 05:39:07;;;;;;;21.45;18.00;;;20.70;98.70;;;;;;5055581;28;20043;-41
2021/06/27 05:41:33;;;;;;;18.23;16.25;;;20.70;98.60;;;;;;5053358;28;20063;-42
2021/06/27 05:43:59;;;;;;;19.55;17.30;;;20.70;98.60;;;;;;5058505;28;20031;-41
2021/06/27 05:46:24;;;;;;;18.33;16.33;;;20.70;98.50;;;;;;5050943;28;20025;-42
2021/06/27 05:48:50;;;;;;;20.38;18.27;;;20.80;98.50;;;;;;5060916;28;20044;-42
2021/06/27 05:51:16;;;;;;;19.80;17.38;;;20.80;98.40;;;;;;5049838;28;20059;-42
2021/06/27 05:53:42;;;;;;;20.42;17.48;;;20.80;98.30;;;;;;5060475;28;20059;-44
2021/06/27 05:56:10;;;;;;;19.60;17.52;;;20.80;98.30;;;;;;5049385;28;20480;-43
2021/06/27 05:58:37;;;;;;;22.00;19.30;;;20.80;98.20;;;;;;5055572;28;20024;-41
2021/06/27 06:01:04;;;;;;;19.40;17.17;;;20.80;98.10;;;;;;5069336;28;20031;-42
2021/06/27 06:03:30;;;;;;;19.75;17.65;;;20.80;98.10;;;;;;5056120;28;20027;-40
2021/06/27 06:05:55;;;;;;;21.58;17.42;;;20.80;98.10;;;;;;5068443;28;20025;-40
2021/06/27 06:08:21;;;;;;;22.30;17.48;;;20.90;98.10;;;;;;5057549;28;20065;-41
2021/06/27 06:10:47;;;;;;;20.42;16.90;;;20.90;98.00;;;;;;5067925;28;20044;-42
2021/06/27 06:13:12;;;;;;;21.70;18.08;;;20.90;97.90;;;;;;5059992;28;20119;-41
2021/06/27 06:15:38;;;;;;;18.58;16.65;;;20.90;98.10;;;;;;5065521;28;20024;-42
2021/06/27 06:18:03;;;;;;;18.85;16.92;;;21.00;97.80;;;;;;5062159;28;20116;-41
2021/06/27 06:20:29;;;;;;;18.52;16.52;;;21.00;97.80;;;;;;5062381;28;20047;-41
2021/06/27 06:22:55;;;;;;;19.35;17.35;;;21.10;97.80;;;;;;5055854;28;20057;-42
2021/06/27 06:25:20;;;;;;;19.58;16.30;;;21.10;97.70;;;;;;5057734;28;20155;-42
2021/06/27 06:27:46;;;;;;;20.48;18.25;;;21.20;97.70;;;;;;5049648;28;20075;-41
2021/06/27 06:30:12;;;;;;;19.30;17.15;;;21.20;97.60;;;;;;5059652;28;20523;-41
2021/06/27 06:32:38;;;;;;;19.80;16.05;;;21.20;97.60;;;;;;5049937;28;20476;-42
2021/06/27 06:35:04;;;;;;;18.88;16.13;;;21.20;97.60;;;;;;5059302;28;20029;-42
2021/06/27 06:37:29;;;;;;;18.27;16.02;;;21.20;97.60;;;;;;5048819;28;20025;-43
2021/06/27 06:39:55;;;;;;;20.00;17.90;;;21.20;97.60;;;;;;5055266;28;20043;-42
2021/06/27 06:42:20;;;;;;;20.27;18.08;;;21.20;97.60;;;;;;5069420;28;20055;-42
2021/06/27 06:44:46;;;;;;;18.63;16.50;;;21.30;97.50;;;;;;5055840;28;20059;-41
2021/06/27 06:47:11;;;;;;;19.00;17.00;;;21.30;97.50;;;;;;5068023;28;20103;-41
2021/06/27 06:49:37;;;;;;;19.83;17.73;;;21.40;97.50;;;;;;5057624;28;20388;-42
2021/06/27 06:52:03;;;;;;;16.95;15.15;;;21.40;97.40;;;;;;5065778;28;20405;-41
2021/06/27 06:54:28;;;;;;;20.42;18.13;;;21.50;97.40;;;;;;5060300;28;20032;-41
2021/06/27 06:56:54;;;;;;;17.38;15.48;;;21.60;97.30;;;;;;5063678;28;20029;-41
2021/06/27 06:59:19;;;;;;;18.60;16.20;;;21.70;97.30;;;;;;5063425;28;20033;-43
2021/06/27 07:01:45;;;;;;;16.88;15.05;;;21.70;97.20;;;;;;5061517;28;20060;-43
2021/06/27 07:04:10;;;;;;;18.23;16.13;;;21.80;97.10;;;;;;5065596;28;20029;-41
2021/06/27 07:06:36;;;;;;;17.33;14.82;;;21.90;97.10;;;;;;5058831;28;20096;-42
2021/06/27 07:09:02;;;;;;;16.70;14.88;;;21.90;97.10;;;;;;5066180;28;20389;-41
2021/06/27 07:11:28;;;;;;;21.00;17.55;;;22.00;97.00;;;;;;5056914;28;20052;-42
2021/06/27 07:13:54;;;;;;;17.95;16.00;;;22.10;96.90;;;;;;5066815;28;20038;-44
2021/06/27 07:16:19;;;;;;;17.17;15.38;;;22.10;96.80;;;;;;5056490;28;20029;-43
2021/06/27 07:18:45;;;;;;;16.23;14.57;;;22.20;96.80;;;;;;5068325;28;20032;-42
2021/06/27 07:21:11;;;;;;;18.15;16.25;;;22.20;96.80;;;;;;5053811;28;20140;-43
2021/06/27 07:23:36;;;;;;;18.70;16.00;;;22.30;96.70;;;;;;5047682;28;20025;-43
2021/06/27 07:26:02;;;;;;;17.98;16.15;;;22.30;96.60;;;;;;5059984;28;20027;-41
2021/06/27 07:28:27;;;;;;;19.17;17.17;;;22.40;96.50;;;;;;5047774;28;20048;-43
2021/06/27 07:30:53;;;;;;;17.50;15.70;;;22.40;96.40;;;;;;5057072;28;20032;-43
2021/06/27 07:33:19;;;;;;;17.13;14.77;;;22.40;96.40;;;;;;5050913;28;20334;-41
2021/06/27 07:35:48;;;;;;;16.48;14.27;;;22.40;96.40;;;;;;5054781;28;20024;-42
2021/06/27 07:38:13;;;;;;;15.95;14.15;;;22.50;96.40;;;;;;5052619;28;20136;-42
2021/06/27 07:40:40;;;;;;;16.67;14.57;;;22.60;96.50;;;;;;5052840;28;20107;-42
2021/06/27 07:43:05;;;;;;;16.08;14.35;;;22.60;96.30;;;;;;5055016;28;20016;-43
2021/06/27 07:45:31;;;;;;;16.10;14.35;;;22.80;96.30;;;;;;5049747;28;20044;-41
2021/06/27 07:47:56;;;;;;;15.13;13.63;;;22.80;96.10;;;;;;5061066;28;20488;-42
2021/06/27 07:50:22;;;;;;;15.45;13.85;;;22.90;96.10;;;;;;5065974;28;20017;-41
2021/06/27 07:52:47;;;;;;;17.27;14.82;;;22.90;96.00;;;;;;5055068;28;20431;-41
2021/06/27 07:55:13;;;;;;;14.18;12.68;;;23.00;95.90;;;;;;5063650;28;20331;-41
2021/06/27 07:57:39;;;;;;;14.85;12.95;;;23.10;96.00;;;;;;5054384;28;20024;-42
2021/06/27 08:00:06;;;;;;;15.80;14.10;;;23.20;95.90;;;;;;5066130;28;20025;-41
2021/06/27 08:02:32;;;;;;;15.68;13.45;;;23.20;95.90;;;;;;5052672;28;20032;-42
2021/06/27 08:04:58;;;;;;;13.73;12.27;;;23.30;95.80;;;;;;5065876;28;20511;-41
2021/06/27 08:07:26;;;;;;;15.07;13.48;;;23.30;95.80;;;;;;5054654;28;20345;-42
2021/06/27 08:09:55;;;;;;;15.35;13.75;;;23.40;95.70;;;;;;5066077;28;20033;-42
2021/06/27 08:12:21;;;;;;;17.10;15.23;;;23.40;95.70;;;;;;5056132;28;20111;-42
2021/06/27 08:14:46;;;;;;;15.02;13.52;;;23.30;95.50;;;;;;5063621;28;20032;-40
2021/06/27 08:17:12;;;;;;;14.63;13.13;;;23.30;95.50;;;;;;5058508;28;20538;-44
2021/06/27 08:19:38;;;;;;;13.70;12.25;;;23.30;95.40;;;;;;5061749;28;20784;-43
2021/06/27 08:22:06;;;;;;;14.95;13.40;;;23.30;95.50;;;;;;5060939;28;20017;-42
2021/06/27 08:24:32;;;;;;;14.98;13.30;;;23.30;95.50;;;;;;5059557;28;20028;-42
2021/06/27 08:26:57;;;;;;;14.93;13.43;;;23.30;95.50;;;;;;5062415;28;20043;-43
2021/06/27 08:29:23;;;;;;;18.27;13.40;;;23.30;95.50;;;;;;5050354;28;20097;-41
2021/06/27 08:31:48;;;;;;;13.82;12.50;;;23.30;95.40;;;;;;5047507;28;20416;-42
2021/06/27 08:34:14;;;;;;;12.90;11.70;;;23.40;95.40;;;;;;5056881;28;20075;-41
2021/06/27 08:36:39;;;;;;;13.32;11.93;;;23.40;95.40;;;;;;5046545;28;20032;-41
2021/06/27 08:39:06;;;;;;;16.83;12.70;;;23.40;95.40;;;;;;5056520;28;20017;-42
2021/06/27 08:41:32;;;;;;;12.90;11.70;;;23.50;95.40;;;;;;5042710;28;20017;-41
2021/06/27 08:43:57;;;;;;;12.50;11.20;;;23.50;95.30;;;;;;5056937;28;20039;-41
2021/06/27 08:46:24;;;;;;;13.00;11.68;;;23.50;95.40;;;;;;5046711;28;20048;-42
2021/06/27 08:48:53;;;;;;;11.63;10.55;;;23.50;95.40;;;;;;5056554;28;20453;-42
2021/06/27 08:51:19;;;;;;;13.02;10.30;;;23.60;95.40;;;;;;5045805;28;20048;-43
2021/06/27 08:53:47;;;;;;;10.13;9.13;;;23.60;95.30;;;;;;5056210;28;20032;-42
2021/06/27 08:56:13;;;;;;;9.73;8.82;;;23.70;95.30;;;;;;5046950;28;20424;-42
2021/06/27 08:58:42;;;;;;;10.25;9.35;;;23.70;95.30;;;;;;5053767;28;20020;-42
2021/06/27 09:01:12;;;;;;;9.10;8.27;;;23.80;95.40;;;;;;5048696;28;20189;-42
2021/06/27 09:03:38;;;;;;;9.18;8.30;;;23.80;95.40;;;;;;5053869;28;20045;-41
2021/06/27 09:06:08;;;;;;;8.95;8.05;;;23.90;95.40;;;;;;5051589;28;20044;-40
2021/06/27 09:08:34;;;;;;;9.60;8.70;;;23.90;95.40;;;;;;5044173;28;20066;-42
2021/06/27 09:11:14;;;;;;;8.95;8.05;;;23.90;95.40;;;;;;5051466;28;20132;-43
2021/06/27 09:13:44;;;;;;;8.18;7.47;;;23.90;95.40;;;;;;5066272;28;20537;-41
2021/06/27 09:16:21;;;;;;;8.55;7.75;;;24.00;95.40;;;;;;5058152;28;20017;-41
2021/06/27 09:18:48;;;;;;;8.70;7.90;;;24.00;95.40;;;;;;5049538;28;20048;-41
2021/06/27 09:21:14;;;;;;;8.65;7.85;;;24.00;95.40;;;;;;5058183;28;20161;-41
2021/06/27 09:23:42;;;;;;;8.30;7.57;;;24.10;95.50;;;;;;5068029;28;20092;-42
2021/06/27 09:26:08;;;;;;;8.05;7.28;;;24.10;95.40;;;;;;5047799;28;20119;-41
2021/06/27 09:28:46;;;;;;;8.35;7.55;;;24.20;95.40;;;;;;5068689;28;20036;-42
2021/06/27 09:31:41;;;;;;;7.95;7.18;;;24.20;95.40;;;;;;5058061;28;20472;-41
2021/06/27 09:34:09;;;;;;;10.13;9.13;;;24.30;95.50;;;;;;5067922;28;20048;-41
2021/06/27 09:36:44;;;;;;;9.50;8.65;;;24.40;95.30;;;;;;5060681;28;20024;-42
2021/06/27 09:39:13;;;;;;;8.48;7.68;;;24.40;95.20;;;;;;5068036;28;20092;-42
2021/06/27 09:41:50;;;;;;;8.77;7.97;;;24.40;95.20;;;;;;5048457;28;20459;-43
2021/06/27 09:44:17;;;;;;;9.07;8.27;;;24.50;95.10;;;;;;5068000;28;20028;-40
2021/06/27 09:46:50;;;;;;;9.55;8.57;;;24.50;95.10;;;;;;5058599;28;20063;-41
2021/06/27 09:49:17;;;;;;;8.57;7.78;;;24.60;94.90;;;;;;5067748;28;20396;-42
2021/06/27 09:51:54;;;;;;;8.60;7.80;;;24.60;94.70;;;;;;5058387;28;20517;-40
2021/06/27 09:54:22;;;;;;;8.45;7.45;;;24.70;94.60;;;;;;5068599;28;20028;-41
2021/06/27 09:56:48;;;;;;;9.57;8.63;;;24.70;94.60;;;;;;5058142;28;20016;-42
2021/06/27 09:59:17;;;;;;;9.32;8.43;;;24.70;94.40;;;;;;5069442;28;20062;-42
2021/06/27 10:01:43;;;;;;;8.95;8.18;;;24.70;94.10;;;;;;5056505;28;20023;-40
2021/06/27 10:04:14;;;;;;;8.77;8.07;;;24.80;94.10;;;;;;5069506;28;20016;-41
2021/06/27 10:06:55;;;;;;;7.80;6.90;;;24.70;93.90;;;;;;5056702;28;20021;-41
2021/06/27 10:09:23;;;;;;;8.70;7.80;;;24.80;94.00;;;;;;5069814;28;20488;-41
2021/06/27 10:12:19;;;;;;;9.63;8.70;;;24.80;93.80;;;;;;5055848;28;20095;-42
2021/06/27 10:14:52;;;;;;;8.57;7.68;;;24.80;93.50;;;;;;5069665;28;20607;-40
2021/06/27 10:17:19;;;;;;;8.93;8.13;;;24.80;93.50;;;;;;5056654;28;20043;-42
2021/06/27 10:19:45;;;;;;;10.45;7.22;;;24.80;93.30;;;;;;5068692;28;20035;-41
2021/06/27 10:22:11;;;;;;;8.90;8.10;;;24.80;93.30;;;;;;5061896;28;20020;-41
2021/06/27 10:24:37;;;;;;;8.90;8.10;;;24.80;93.30;;;;;;5069435;28;20032;-42
2021/06/27 10:27:07;;;;;;;8.18;7.38;;;24.80;93.20;;;;;;5056393;28;20461;-42
2021/06/27 10:29:37;;;;;;;9.15;7.15;;;24.80;93.10;;;;;;5029195;28;20045;-42
2021/06/27 10:32:03;;;;;;;6.88;6.25;;;24.80;92.90;;;;;;5053774;28;20437;-42
2021/06/27 10:34:29;;;;;;;7.70;6.90;;;24.90;92.90;;;;;;5050865;28;20086;-43
2021/06/27 10:36:57;;;;;;;8.25;6.55;;;24.80;92.70;;;;;;5056857;28;20387;-41
2021/06/27 10:39:24;;;;;;;7.22;6.63;;;24.80;92.50;;;;;;5053668;28;20385;-42
2021/06/27 10:42:01;;;;;;;7.30;6.60;;;24.90;92.40;;;;;;5054237;28;20044;-41
2021/06/27 10:44:29;;;;;;;5.97;5.47;;;24.80;92.20;;;;;;5054327;28;20021;-41
2021/06/27 10:47:06;;;;;;;6.70;6.10;;;24.90;92.30;;;;;;5053143;28;20032;-41
2021/06/27 10:49:34;;;;;;;7.22;6.53;;;24.90;92.30;;;;;;5054812;28;20091;-42
2021/06/27 10:52:07;;;;;;;8.05;7.22;;;25.00;92.40;;;;;;5052533;28;20365;-41
2021/06/27 10:54:40;;;;;;;7.60;6.90;;;25.00;92.10;;;;;;5056182;28;20025;-41
2021/06/27 10:57:08;;;;;;;8.20;7.13;;;25.10;91.90;;;;;;5052180;28;20031;-41
2021/06/27 10:59:52;;;;;;;8.77;7.97;;;25.20;91.80;;;;;;5057233;28;20029;-42
2021/06/27 11:02:36;;;;;;;8.30;7.50;;;25.30;91.40;;;;;;5052132;28;20091;-42
2021/06/27 11:05:33;;;;;;;8.52;7.72;;;25.40;91.40;;;;;;5054436;28;20032;-42
2021/06/27 11:08:05;;;;;;;9.23;6.75;;;25.50;91.30;;;;;;5055526;28;20095;-42
2021/06/27 11:10:33;;;;;;;7.82;7.05;;;25.60;91.40;;;;;;5051529;28;20108;-42
2021/06/27 11:13:02;;;;;;;7.82;7.07;;;25.70;91.50;;;;;;5055095;28;20024;-41
2021/06/27 11:15:39;;;;;;;7.95;7.20;;;25.90;91.40;;;;;;5053469;28;20538;-42
2021/06/27 11:18:06;;;;;;;9.15;8.30;;;26.00;91.10;;;;;;5053904;28;20032;-41
2021/06/27 11:20:56;;;;;;;7.25;6.65;;;26.10;90.90;;;;;;5054851;28;20021;-42
2021/06/27 11:23:51;;;;;;;8.27;6.90;;;26.10;91.00;;;;;;5055756;28;20041;-40
2021/06/27 11:26:38;;;;;;;7.63;6.63;;;26.30;90.80;;;;;;5063758;28;20029;-41
2021/06/27 11:29:22;;;;;;;8.40;7.60;;;26.30;90.30;;;;;;5055644;28;20885;-42
2021/06/27 11:32:15;;;;;;;9.25;8.35;;;26.40;89.00;;;;;;5028528;28;20563;-41
2021/06/27 11:34:51;;;;;;;;;;;26.40;88.60;;;;;;5059547;28;20048;-42
2021/06/27 11:37:16;;;;;;;6.68;6.10;;;26.40;88.70;;;;;;5047603;28;19947;-42
2021/06/27 11:39:59;;;;;;;6.75;6.15;;;26.40;88.70;;;;;;5060055;28;20082;-41
2021/06/27 11:42:27;;;;;;;6.25;5.75;;;26.50;88.10;;;;;;5048356;28;20017;-41
2021/06/27 11:45:08;;;;;;;7.80;6.57;;;26.60;88.40;;;;;;5059890;28;20102;-41
2021/06/27 11:47:49;;;;;;;7.18;6.57;;;26.60;87.80;;;;;;5037547;28;20040;-42
2021/06/27 11:50:21;;;;;;;6.05;5.45;;;26.60;86.00;;;;;;5046704;28;20097;-41
2021/06/27 11:52:57;;;;;;;5.78;5.28;;;26.60;85.90;;;;;;5036067;28;20017;-42
2021/06/27 11:55:27;;;;;;;5.40;5.00;;;26.60;86.10;;;;;;5054682;28;20155;-42
2021/06/27 11:57:53;;;;;;;5.60;5.10;;;26.60;85.20;;;;;;5066573;28;20097;-40
2021/06/27 12:00:20;;;;;;;6.25;4.97;;;26.60;85.50;;;;;;5054714;28;20025;-41
2021/06/27 12:02:45;;;;;;;6.45;5.85;;;26.70;85.90;;;;;;5067416;28;20036;-42
2021/06/27 12:05:14;;;;;;;6.25;5.75;;;26.70;84.70;;;;;;5055526;28;20186;-42
2021/06/27 12:07:46;;;;;;;5.85;5.32;;;26.70;83.00;;;;;;5065381;28;20036;-41
2021/06/27 12:10:18;;;;;;;5.63;5.07;;;26.60;82.80;;;;;;5054935;28;20036;-41
2021/06/27 12:12:50;;;;;;;5.85;5.35;;;26.60;83.00;;;;;;5063281;28;20480;-41
2021/06/27 12:15:58;;;;;;;5.97;5.47;;;26.70;82.40;;;;;;5057888;28;20044;-42
2021/06/27 12:18:25;;;;;;;5.70;5.10;;;26.70;82.10;;;;;;4926597;29;20035;-41
2021/06/27 12:20:53;;;;;;;5.45;5.03;;;26.70;82.30;;;;;;4938410;29;20035;-42
2021/06/27 12:23:40;;;;;;;5.63;5.03;;;26.70;82.50;;;;;;5004150;28;20044;-41
2021/06/27 12:26:14;;;;;;;5.80;5.40;;;26.80;81.40;;;;;;5053795;28;20074;-41
2021/06/27 12:28:51;;;;;;;5.03;4.63;;;26.80;80.40;;;;;;5066735;28;20060;-41
2021/06/27 12:31:31;;;;;;;4.82;4.43;;;26.80;80.90;;;;;;5047924;28;20022;-41
2021/06/27 12:34:04;;;;;;;5.25;4.85;;;26.80;81.40;;;;;;5026302;28;20044;-42
2021/06/27 12:36:39;;;;;;;5.03;4.63;;;26.70;80.40;;;;;;5055999;28;20016;-42
2021/06/27 12:39:16;;;;;;;5.60;5.10;;;26.70;80.40;;;;;;5046714;28;20029;-41